Time;durP1;ratioP1;P1;durP2;ratioP2;P2;SDS_P1;SDS_P2;PMS_P1;PMS_P2;Temp;Humidity;BMP_temperature;BMP_pressure;BME280_temperature;BME280_humidity;BME280_pressure;Samples;Min_cycle;Max_cycle;Signal;HPM_P1;HPM_P2
2023/10/20 00:01:35;;;;;;;1.75;1.00;;;17.50;99.90;;;;;;5006304;28;20152;-14
2023/10/20 00:04:03;;;;;;;2.38;1.15;;;17.50;99.90;;;;;;4999223;28;20065;-14
2023/10/20 00:06:29;;;;;;;1.33;1.13;;;17.50;99.90;;;;;;4968782;28;20509;-14
2023/10/20 00:08:56;;;;;;;1.40;1.20;;;17.50;99.90;;;;;;5022604;28;20044;-15
2023/10/20 00:11:22;;;;;;;1.45;1.20;;;17.50;99.90;;;;;;4977410;28;20069;-15
2023/10/20 00:13:48;;;;;;;2.17;1.20;;;17.50;99.90;;;;;;5006888;28;20030;-16
2023/10/20 00:16:13;;;;;;;1.23;1.10;;;17.50;99.90;;;;;;5005667;28;20026;-16
2023/10/20 00:18:39;;;;;;;1.10;1.00;;;17.50;99.90;;;;;;4997708;28;20060;-15
2023/10/20 00:21:05;;;;;;;1.30;1.20;;;17.50;99.90;;;;;;5006080;28;20032;-14
2023/10/20 00:23:32;;;;;;;1.23;0.90;;;17.50;99.90;;;;;;4964775;28;20565;-14
2023/10/20 00:25:58;;;;;;;1.17;0.98;;;17.50;99.90;;;;;;4998473;28;20492;-14
2023/10/20 00:28:24;;;;;;;1.20;1.00;;;17.50;99.90;;;;;;5007770;28;20033;-15
2023/10/20 00:30:50;;;;;;;1.03;0.93;;;17.50;99.90;;;;;;5009590;28;20033;-14
2023/10/20 00:33:15;;;;;;;1.37;1.17;;;17.50;99.90;;;;;;5002727;28;20037;-15
2023/10/20 00:35:41;;;;;;;1.67;1.20;;;17.50;99.90;;;;;;5000366;28;20540;-14
2023/10/20 00:38:07;;;;;;;1.70;1.20;;;17.50;99.90;;;;;;4980049;28;20057;-14
2023/10/20 00:40:32;;;;;;;1.50;1.10;;;17.50;99.90;;;;;;4962331;28;20282;-15
2023/10/20 00:42:58;;;;;;;1.20;1.10;;;17.50;99.90;;;;;;5007352;28;20055;-14
2023/10/20 00:45:24;;;;;;;2.13;1.20;;;17.50;99.90;;;;;;4991041;28;20487;-14
2023/10/20 00:47:50;;;;;;;1.48;1.00;;;17.50;99.90;;;;;;5010147;28;20030;-14
2023/10/20 00:50:16;;;;;;;1.70;1.17;;;17.50;99.90;;;;;;4998201;28;20410;-14
2023/10/20 00:52:52;;;;;;;1.92;1.20;;;16.40;99.90;;;;;;4980355;28;21379;-14
2023/10/20 00:55:21;;;;;;;2.35;1.23;;;17.50;99.90;;;;;;4993636;28;20095;-15
2023/10/20 00:57:47;;;;;;;2.03;1.35;;;17.50;99.90;;;;;;4992778;28;20037;-14
2023/10/20 01:00:14;;;;;;;2.23;1.20;;;17.50;99.90;;;;;;5007443;28;20034;-15
2023/10/20 01:02:40;;;;;;;1.52;1.05;;;17.50;99.90;;;;;;4991236;28;20718;-14
2023/10/20 01:05:06;;;;;;;1.35;1.25;;;17.50;99.90;;;;;;5007516;28;20029;-14
2023/10/20 01:07:34;;;;;;;1.73;1.40;;;17.50;99.90;;;;;;4994414;28;20568;-15
2023/10/20 01:10:06;;;;;;;1.80;1.33;;;17.50;99.90;;;;;;4971015;28;20028;-14
2023/10/20 01:12:32;;;;;;;1.40;1.30;;;17.50;99.90;;;;;;4994758;28;20477;-15
2023/10/20 01:14:59;;;;;;;2.13;1.40;;;17.50;99.90;;;;;;5008211;28;20021;-15
2023/10/20 01:17:26;;;;;;;1.90;1.60;;;14.80;99.90;;;;;;5005410;28;20036;-14
2023/10/20 01:19:52;;;;;;;1.80;1.50;;;17.50;99.90;;;;;;5003824;28;20466;-14
2023/10/20 01:22:18;;;;;;;1.60;1.40;;;17.50;99.90;;;;;;4998506;28;20108;-15
2023/10/20 01:24:44;;;;;;;2.13;1.50;;;17.50;99.90;;;;;;4981445;28;20065;-14
2023/10/20 01:27:09;;;;;;;1.63;1.50;;;17.50;99.90;;;;;;4990645;28;20561;-14
2023/10/20 01:29:35;;;;;;;1.40;1.30;;;17.50;99.90;;;;;;4995485;28;20061;-14
2023/10/20 01:32:01;;;;;;;2.70;1.63;;;17.50;99.90;;;;;;5021576;28;20033;-13
2023/10/20 01:34:26;;;;;;;1.77;1.58;;;17.50;99.90;;;;;;5004219;28;20022;-13
2023/10/20 01:36:52;;;;;;;3.30;1.70;;;17.50;99.90;;;;;;5002233;28;20048;-12
2023/10/20 01:39:19;;;;;;;2.10;1.63;;;17.50;99.90;;;;;;4988313;28;20021;-13
2023/10/20 01:41:45;;;;;;;2.20;1.67;;;17.50;99.90;;;;;;5008901;28;20033;-13
2023/10/20 01:44:13;;;;;;;2.28;1.73;;;17.50;99.90;;;;;;4996504;28;20030;-13
2023/10/20 01:46:39;;;;;;;3.45;2.28;;;17.50;99.90;;;;;;5008140;28;20166;-12
2023/10/20 01:49:07;;;;;;;2.25;1.63;;;17.40;99.90;;;;;;5006942;28;20110;-12
2023/10/20 01:51:34;;;;;;;2.03;1.70;;;17.50;99.90;;;;;;5008960;28;20404;-13
2023/10/20 01:54:00;;;;;;;4.23;2.30;;;17.40;99.90;;;;;;5003508;28;20380;-12
2023/10/20 01:56:26;;;;;;;2.50;1.90;;;17.40;99.90;;;;;;4969913;28;20096;-13
2023/10/20 01:58:51;;;;;;;4.07;2.07;;;17.40;99.90;;;;;;5006761;28;20084;-12
2023/10/20 02:01:18;;;;;;;2.60;1.92;;;17.40;99.90;;;;;;5011728;28;20620;-13
2023/10/20 02:03:47;;;;;;;2.65;2.00;;;17.40;99.90;;;;;;5012986;28;20078;-12
2023/10/20 02:06:13;;;;;;;3.97;2.07;;;17.40;99.90;;;;;;5007166;28;20088;-13
2023/10/20 02:08:39;;;;;;;2.90;2.10;;;17.40;99.90;;;;;;5001110;28;20342;-12
2023/10/20 02:11:05;;;;;;;2.80;2.10;;;17.40;99.90;;;;;;4988845;28;20503;-13
2023/10/20 02:13:30;;;;;;;3.43;2.40;;;17.40;99.90;;;;;;4996189;28;20241;-12
2023/10/20 02:15:56;;;;;;;3.53;2.20;;;17.40;99.90;;;;;;5000634;28;20742;-12
2023/10/20 02:18:22;;;;;;;3.35;2.45;;;17.30;99.90;;;;;;5008665;28;20038;-12
2023/10/20 02:21:03;;;;;;;3.20;2.40;;;17.30;99.90;;;;;;4995344;28;20507;-12
2023/10/20 02:23:34;;;;;;;3.28;2.40;;;17.30;99.90;;;;;;4997581;28;20333;-12
2023/10/20 02:26:07;;;;;;;3.42;2.60;;;17.30;99.90;;;;;;4983895;28;20108;-12
2023/10/20 02:28:34;;;;;;;3.80;2.30;;;17.30;99.90;;;;;;4998262;28;20245;-15
2023/10/20 02:31:01;;;;;;;2.72;1.95;;;17.30;99.90;;;;;;4997297;28;20167;-15
2023/10/20 02:33:27;;;;;;;3.97;2.70;;;17.30;99.90;;;;;;5004268;28;20018;-15
2023/10/20 02:35:56;;;;;;;3.53;2.13;;;17.20;99.90;;;;;;5009485;28;20076;-15
2023/10/20 02:38:22;;;;;;;3.78;2.55;;;17.20;99.90;;;;;;5006072;28;20128;-13
2023/10/20 02:40:53;;;;;;;3.80;2.53;;;17.30;99.90;;;;;;5002361;28;20041;-12
2023/10/20 02:43:19;;;;;;;3.72;2.38;;;17.20;99.90;;;;;;4999123;28;20441;-13
2023/10/20 02:45:54;;;;;;;2.73;2.10;;;17.20;99.90;;;;;;5009468;28;20037;-11
2023/10/20 02:48:21;;;;;;;3.25;2.35;;;17.20;99.90;;;;;;4994467;28;20030;-13
2023/10/20 02:50:47;;;;;;;3.10;2.10;;;17.20;99.90;;;;;;5023582;28;20030;-12
2023/10/20 02:53:13;;;;;;;3.50;2.60;;;17.20;99.90;;;;;;5005591;28;20257;-13
2023/10/20 02:55:43;;;;;;;3.85;2.47;;;17.20;99.90;;;;;;5000901;28;20148;-12
2023/10/20 02:58:12;;;;;;;3.50;2.55;;;17.20;99.90;;;;;;4982533;28;20030;-13
2023/10/20 03:00:46;;;;;;;3.08;2.33;;;17.20;99.90;;;;;;4996657;28;20427;-11
2023/10/20 03:03:13;;;;;;;3.25;2.50;;;17.20;99.90;;;;;;4995676;28;20519;-13
2023/10/20 03:05:43;;;;;;;4.17;2.70;;;17.20;99.90;;;;;;5004535;28;20337;-12
2023/10/20 03:08:09;;;;;;;3.80;2.50;;;17.20;99.90;;;;;;5008412;28;20029;-13
2023/10/20 03:10:35;;;;;;;3.72;2.15;;;18.10;99.90;;;;;;4998459;28;20037;-11
2023/10/20 03:13:01;;;;;;;3.45;2.28;;;17.20;99.90;;;;;;4985490;28;20026;-13
2023/10/20 03:15:27;;;;;;;3.08;2.17;;;17.30;99.90;;;;;;4994676;28;20742;-12
2023/10/20 03:17:53;;;;;;;2.93;2.30;;;17.20;99.90;;;;;;4997820;28;20085;-11
2023/10/20 03:20:24;;;;;;;3.83;2.40;;;17.20;99.90;;;;;;5003772;28;20515;-13
2023/10/20 03:22:51;;;;;;;3.40;2.43;;;17.20;99.90;;;;;;5007763;28;20705;-13
2023/10/20 03:25:18;;;;;;;3.60;2.28;;;17.20;99.90;;;;;;4990577;28;20039;-13
2023/10/20 03:27:44;;;;;;;3.53;2.40;;;17.20;99.90;;;;;;4976374;28;20069;-12
2023/10/20 03:30:09;;;;;;;2.78;2.17;;;17.20;99.90;;;;;;5021395;28;20112;-13
2023/10/20 03:32:36;;;;;;;3.07;2.60;;;17.20;99.90;;;;;;4997272;28;20033;-12
2023/10/20 03:35:01;;;;;;;3.75;2.58;;;17.20;99.90;;;;;;4996769;28;20037;-12
2023/10/20 03:37:27;;;;;;;2.80;2.23;;;17.20;99.90;;;;;;5006034;28;20030;-11
2023/10/20 03:39:53;;;;;;;2.93;2.07;;;17.20;99.90;;;;;;5008664;28;20268;-12
2023/10/20 03:42:21;;;;;;;3.40;2.33;;;17.20;99.90;;;;;;4997381;28;20674;-13
2023/10/20 03:44:48;;;;;;;3.00;2.15;;;17.30;99.90;;;;;;4983330;28;20041;-11
2023/10/20 03:47:14;;;;;;;3.65;2.47;;;17.20;99.90;;;;;;4997634;28;20025;-12
2023/10/20 03:49:41;;;;;;;3.43;2.20;;;17.20;99.90;;;;;;4996795;28;20022;-13
2023/10/20 03:52:11;;;;;;;2.95;2.40;;;17.20;99.90;;;;;;5008461;28;20025;-11
2023/10/20 03:54:40;;;;;;;2.85;2.20;;;17.20;99.90;;;;;;5004567;28;20425;-13
2023/10/20 03:57:06;;;;;;;3.33;2.13;;;17.20;99.90;;;;;;4999436;28;20038;-12
2023/10/20 03:59:32;;;;;;;2.67;2.10;;;17.20;99.90;;;;;;4982291;28;20068;-13
2023/10/20 04:01:58;;;;;;;3.30;2.30;;;17.20;99.90;;;;;;4995369;28;20835;-11
2023/10/20 04:04:24;;;;;;;3.50;2.10;;;17.20;99.90;;;;;;5008043;28;20029;-12
2023/10/20 04:06:50;;;;;;;2.83;2.17;;;17.20;99.90;;;;;;4993251;28;20029;-11
2023/10/20 04:09:17;;;;;;;2.53;2.13;;;17.20;99.90;;;;;;5008829;28;20029;-12
2023/10/20 04:11:44;;;;;;;3.85;2.30;;;17.20;99.90;;;;;;5003852;28;20549;-13
2023/10/20 04:14:10;;;;;;;2.88;2.35;;;17.20;99.90;;;;;;5015662;28;20041;-12
2023/10/20 04:16:39;;;;;;;6.13;2.80;;;17.20;99.90;;;;;;4978331;28;20040;-13
2023/10/20 04:19:09;;;;;;;3.10;2.13;;;17.20;99.90;;;;;;4993186;28;20026;-12
2023/10/20 04:21:39;;;;;;;3.47;2.38;;;17.20;99.90;;;;;;4994063;28;20029;-13
2023/10/20 04:24:07;;;;;;;3.65;2.20;;;17.20;99.90;;;;;;5021347;28;20044;-12
2023/10/20 04:26:35;;;;;;;2.80;2.08;;;17.20;99.90;;;;;;5019767;28;20538;-13
2023/10/20 04:58:35;;;;;;;3.33;1.98;;;17.20;99.90;;;;;;5006913;28;20034;-13
2023/10/20 05:01:09;;;;;;;3.95;2.40;;;17.20;99.90;;;;;;4983231;28;20123;-14
2023/10/20 05:03:45;;;;;;;2.67;1.97;;;17.20;99.90;;;;;;4993195;28;20046;-13
2023/10/20 05:06:26;;;;;;;3.92;2.15;;;17.20;99.90;;;;;;4991019;28;20017;-13
2023/10/20 05:08:53;;;;;;;3.28;2.15;;;17.20;99.90;;;;;;4994663;28;20098;-15
2023/10/20 05:11:19;;;;;;;3.40;2.58;;;17.20;99.90;;;;;;5008506;28;20742;-12
2023/10/20 05:13:45;;;;;;;3.70;2.55;;;17.20;99.90;;;;;;5011038;28;20373;-12
2023/10/20 05:16:12;;;;;;;3.93;2.50;;;17.20;99.90;;;;;;4971993;28;20056;-13
2023/10/20 05:18:42;;;;;;;3.60;2.38;;;17.20;99.90;;;;;;5011192;28;20396;-14
2023/10/20 05:21:08;;;;;;;3.05;2.38;;;17.20;99.90;;;;;;4987332;28;20045;-14
2023/10/20 05:23:36;;;;;;;4.45;2.60;;;17.20;99.90;;;;;;4998670;28;20300;-13
2023/10/20 05:26:02;;;;;;;3.70;2.37;;;17.20;99.90;;;;;;5011252;28;20371;-14
2023/10/20 05:28:29;;;;;;;3.40;2.45;;;17.20;99.90;;;;;;5008213;28;20041;-14
2023/10/20 05:30:55;;;;;;;3.80;2.45;;;17.20;99.90;;;;;;5001466;28;20044;-14
2023/10/20 05:33:21;;;;;;;3.28;2.40;;;17.20;99.90;;;;;;4986367;28;20037;-15
2023/10/20 05:35:46;;;;;;;3.83;2.60;;;17.30;99.90;;;;;;4998173;28;20686;-14
2023/10/20 05:38:12;;;;;;;5.20;3.20;;;17.20;99.90;;;;;;4998829;28;20064;-15
2023/10/20 05:40:39;;;;;;;3.67;2.63;;;17.20;99.90;;;;;;4994554;28;20313;-15
2023/10/20 05:43:08;;;;;;;3.45;2.55;;;17.20;99.90;;;;;;5008797;28;20025;-15
2023/10/20 05:45:41;;;;;;;3.63;2.50;;;17.20;99.90;;;;;;4996124;28;20781;-15
2023/10/20 05:48:07;;;;;;;7.18;2.58;;;17.20;99.90;;;;;;4984645;28;20026;-16
2023/10/20 05:50:37;;;;;;;3.43;2.60;;;17.20;99.90;;;;;;4999006;28;20164;-16
2023/10/20 05:53:04;;;;;;;3.45;2.58;;;17.20;99.90;;;;;;5000266;28;20029;-15
2023/10/20 05:55:30;;;;;;;3.35;2.50;;;17.20;99.90;;;;;;4982561;28;20029;-16
2023/10/20 05:57:56;;;;;;;3.92;2.60;;;17.20;99.90;;;;;;5007339;28;20036;-16
2023/10/20 06:00:22;;;;;;;3.57;2.50;;;17.20;99.90;;;;;;5020073;28;21540;-18
2023/10/20 06:02:48;;;;;;;3.40;2.38;;;17.20;99.90;;;;;;4980960;28;20045;-20
2023/10/20 06:05:14;;;;;;;4.15;2.65;;;17.20;99.90;;;;;;4994215;28;20017;-19
2023/10/20 06:07:41;;;;;;;3.40;2.30;;;17.20;99.90;;;;;;4986599;28;20039;-23
2023/10/20 06:10:29;;;;;;;3.65;2.40;;;17.20;99.90;;;;;;5010746;28;20108;-23
2023/10/20 06:12:54;;;;;;;3.47;2.25;;;17.20;99.90;;;;;;5007943;28;23428;-26
2023/10/20 06:15:21;;;;;;;4.00;2.30;;;17.20;99.90;;;;;;5010836;28;20022;-18
2023/10/20 06:17:49;;;;;;;3.47;2.33;;;17.20;99.90;;;;;;4979748;28;20215;-23
2023/10/20 06:20:15;;;;;;;3.88;2.60;;;17.20;99.90;;;;;;5012425;28;20109;-18
2023/10/20 06:22:42;;;;;;;3.67;2.47;;;17.20;99.90;;;;;;4984431;28;20037;-24
2023/10/20 06:25:14;;;;;;;3.60;2.28;;;17.20;99.90;;;;;;5007010;28;20165;-20
2023/10/20 06:27:45;;;;;;;3.40;2.42;;;17.20;99.90;;;;;;5006550;28;20234;-31
2023/10/20 06:30:32;;;;;;;3.17;2.03;;;17.20;99.90;;;;;;4999095;28;20034;-18
2023/10/20 06:35:52;;;;;;;3.35;2.35;;;17.20;99.90;;;;;;5015629;28;20080;-18
2023/10/20 06:41:21;;;;;;;3.13;2.20;;;17.20;99.90;;;;;;4978418;28;20554;-17
2023/10/20 06:43:48;;;;;;;2.60;2.00;;;17.20;99.90;;;;;;5001548;28;20211;-19
2023/10/20 06:46:14;;;;;;;3.90;2.38;;;17.20;99.90;;;;;;5006298;28;20033;-18
2023/10/20 06:48:39;;;;;;;3.47;2.03;;;17.20;99.90;;;;;;4979006;28;20044;-19
2023/10/20 06:51:05;;;;;;;3.37;2.40;;;17.20;99.90;;;;;;5021844;28;20419;-18
2023/10/20 06:53:31;;;;;;;3.25;2.25;;;17.20;99.90;;;;;;4997200;28;20037;-18
2023/10/20 06:55:58;;;;;;;3.38;2.17;;;17.20;99.90;;;;;;5001338;28;20037;-20
2023/10/20 06:58:24;;;;;;;3.38;2.10;;;17.20;99.90;;;;;;5008726;28;20022;-17
2023/10/20 07:00:50;;;;;;;4.07;2.07;;;17.20;99.90;;;;;;5020059;28;20053;-19
2023/10/20 07:03:16;;;;;;;3.45;1.98;;;18.10;99.90;;;;;;4990498;28;20054;-18
2023/10/20 07:05:44;;;;;;;3.42;2.28;;;17.30;99.90;;;;;;4963008;28;20339;-17
2023/10/20 07:08:10;;;;;;;3.50;2.30;;;17.30;99.90;;;;;;5010073;28;20044;-21
2023/10/20 07:10:37;;;;;;;2.97;2.08;;;17.30;99.90;;;;;;4977006;28;20029;-16
2023/10/20 07:13:07;;;;;;;3.28;2.25;;;17.30;99.90;;;;;;4999822;28;20041;-16
2023/10/20 07:15:36;;;;;;;3.30;2.28;;;17.30;99.90;;;;;;5004138;28;20486;-16
2023/10/20 07:18:03;;;;;;;3.35;2.20;;;17.30;99.90;;;;;;5006224;28;20537;-16
2023/10/20 07:20:33;;;;;;;2.30;1.80;;;17.30;99.90;;;;;;4980142;28;20357;-17
2023/10/20 07:23:00;;;;;;;2.67;1.88;;;17.30;99.90;;;;;;5008338;28;20555;-15
2023/10/20 07:25:28;;;;;;;2.58;1.92;;;17.30;99.90;;;;;;4977883;28;20045;-15
2023/10/20 07:27:54;;;;;;;2.40;1.75;;;17.40;99.90;;;;;;4984725;28;20033;-15
2023/10/20 07:30:20;;;;;;;3.07;2.00;;;17.30;99.90;;;;;;5002998;28;20036;-14
2023/10/20 07:32:46;;;;;;;2.60;1.90;;;17.30;99.90;;;;;;4980120;28;20594;-15
2023/10/20 07:35:12;;;;;;;3.15;1.73;;;17.30;99.90;;;;;;4998634;28;20067;-14
2023/10/20 07:37:39;;;;;;;2.53;1.88;;;17.30;99.90;;;;;;4940397;28;20057;-14
2023/10/20 07:40:07;;;;;;;2.30;1.60;;;17.30;99.90;;;;;;4991534;28;20029;-14
2023/10/20 07:42:33;;;;;;;2.50;1.80;;;17.30;99.90;;;;;;5006176;28;20693;-13
2023/10/20 07:45:00;;;;;;;2.42;1.92;;;17.40;99.90;;;;;;5004818;28;20026;-14
2023/10/20 07:47:26;;;;;;;2.47;1.73;;;17.40;99.90;;;;;;4997800;28;20437;-14
2023/10/20 07:49:52;;;;;;;2.63;1.90;;;17.30;99.90;;;;;;5000848;28;20108;-14
2023/10/20 07:52:19;;;;;;;3.05;1.80;;;17.40;99.90;;;;;;4980957;28;21848;-14
2023/10/20 07:54:45;;;;;;;3.17;1.70;;;17.30;99.90;;;;;;5011183;28;20522;-14
2023/10/20 07:57:12;;;;;;;2.47;1.70;;;17.40;99.90;;;;;;4965026;28;20056;-14
2023/10/20 07:59:38;;;;;;;2.30;1.58;;;17.40;99.90;;;;;;4997378;28;20385;-13
2023/10/20 08:02:05;;;;;;;2.40;1.63;;;17.40;99.90;;;;;;5006139;28;20065;-13
2023/10/20 08:04:33;;;;;;;2.47;1.80;;;17.40;99.90;;;;;;5007725;28;20033;-14
2023/10/20 08:06:59;;;;;;;2.38;1.65;;;17.40;99.90;;;;;;4971266;28;20086;-14
2023/10/20 08:09:27;;;;;;;2.43;1.70;;;17.40;99.90;;;;;;4994666;28;20022;-13
2023/10/20 08:11:53;;;;;;;2.80;1.95;;;17.50;99.90;;;;;;4996558;28;20030;-14
2023/10/20 08:14:20;;;;;;;2.17;1.67;;;17.50;99.90;;;;;;5004058;28;20436;-13
2023/10/20 08:16:47;;;;;;;2.43;1.93;;;17.50;99.90;;;;;;5009643;28;20113;-15
2023/10/20 08:19:19;;;;;;;3.58;1.75;;;17.50;99.90;;;;;;5004780;28;20278;-19
2023/10/20 08:21:45;;;;;;;2.72;1.98;;;17.50;99.90;;;;;;4995961;28;20117;-16
2023/10/20 08:24:11;;;;;;;2.40;1.60;;;17.50;99.90;;;;;;4987288;28;20037;-17
2023/10/20 08:26:39;;;;;;;3.73;2.10;;;17.50;99.90;;;;;;4998254;28;20629;-17
2023/10/20 08:29:11;;;;;;;2.85;1.85;;;17.50;99.90;;;;;;4979386;28;20399;-18
2023/10/20 08:31:38;;;;;;;2.60;1.60;;;17.50;99.90;;;;;;5007402;28;20041;-18
2023/10/20 08:34:04;;;;;;;2.17;1.63;;;17.50;99.90;;;;;;4998830;28;20138;-17
2023/10/20 08:36:30;;;;;;;2.85;1.80;;;17.60;99.90;;;;;;5000634;28;20087;-18
2023/10/20 08:38:55;;;;;;;2.77;1.80;;;17.60;99.90;;;;;;4961855;28;20029;-16
2023/10/20 08:41:22;;;;;;;2.40;1.60;;;17.60;99.90;;;;;;4999685;28;20029;-17
2023/10/20 08:43:49;;;;;;;2.42;1.73;;;17.60;99.90;;;;;;5003329;28;20033;-17
2023/10/20 08:46:17;;;;;;;2.30;1.70;;;17.60;99.90;;;;;;4988557;28;20021;-17
2023/10/20 08:48:44;;;;;;;2.97;1.77;;;17.60;99.90;;;;;;5007801;28;20099;-20
2023/10/20 08:51:15;;;;;;;3.67;1.55;;;17.60;99.90;;;;;;5003476;28;20026;-16
2023/10/20 08:53:41;;;;;;;2.35;1.60;;;17.70;99.90;;;;;;4974279;28;20185;-18
2023/10/20 08:56:08;;;;;;;2.20;1.60;;;17.70;99.90;;;;;;4996267;28;20029;-16
2023/10/20 08:58:35;;;;;;;1.87;1.47;;;17.70;99.90;;;;;;5007001;28;20608;-18
2023/10/20 09:01:01;;;;;;;2.78;1.70;;;17.70;99.90;;;;;;4983095;28;20033;-17
2023/10/20 09:03:37;;;;;;;2.67;1.63;;;17.70;99.90;;;;;;5004289;28;20060;-16
2023/10/20 09:06:05;;;;;;;2.85;1.42;;;17.80;99.90;;;;;;5004393;28;20638;-16
2023/10/20 09:08:31;;;;;;;2.25;1.60;;;17.80;99.90;;;;;;4984727;28;20027;-18
2023/10/20 09:10:57;;;;;;;2.03;1.50;;;17.80;99.90;;;;;;4997288;28;20038;-14
2023/10/20 09:13:34;;;;;;;2.00;1.60;;;17.80;99.90;;;;;;5005188;28;20239;-14
2023/10/20 09:16:07;;;;;;;1.77;1.42;;;17.90;99.90;;;;;;5007607;28;20148;-15
2023/10/20 09:18:42;;;;;;;2.33;1.50;;;17.90;99.90;;;;;;4998289;28;20259;-14
2023/10/20 09:21:08;;;;;;;2.20;1.37;;;17.90;99.90;;;;;;5003790;28;20705;-15
2023/10/20 09:23:34;;;;;;;2.05;1.35;;;17.90;99.90;;;;;;4970480;28;20111;-15
2023/10/20 09:25:59;;;;;;;2.70;1.40;;;18.00;99.90;;;;;;5020822;28;20030;-14
2023/10/20 09:28:25;;;;;;;1.60;1.30;;;18.00;99.90;;;;;;4991750;28;20411;-15
2023/10/20 09:30:53;;;;;;;2.47;1.50;;;18.00;99.90;;;;;;4994590;28;20446;-20
2023/10/20 09:33:21;;;;;;;2.00;1.50;;;18.00;99.90;;;;;;5006402;28;20144;-17
2023/10/20 09:35:46;;;;;;;1.95;1.42;;;18.00;99.90;;;;;;5005170;28;20046;-19
2023/10/20 09:38:13;;;;;;;1.75;1.40;;;18.00;99.90;;;;;;4981156;28;20041;-17
2023/10/20 09:40:44;;;;;;;2.10;1.30;;;18.10;99.90;;;;;;5008298;28;20426;-17
2023/10/20 09:43:28;;;;;;;1.55;1.25;;;18.10;99.90;;;;;;4993370;28;20038;-21
2023/10/20 09:46:22;;;;;;;1.45;1.20;;;18.10;99.90;;;;;;5007562;28;20026;-20
2023/10/20 09:48:51;;;;;;;2.10;1.40;;;18.10;99.90;;;;;;4981907;28;20041;-20
2023/10/20 09:51:20;;;;;;;1.83;1.38;;;18.10;99.90;;;;;;5014303;28;20033;-18
2023/10/20 09:53:46;;;;;;;3.10;1.30;;;18.10;99.90;;;;;;4974454;28;20506;-19
2023/10/20 09:56:13;;;;;;;1.55;1.20;;;18.10;99.90;;;;;;4998889;28;20554;-18
2023/10/20 09:58:41;;;;;;;1.95;1.38;;;18.10;99.90;;;;;;5002997;28;20083;-20
2023/10/20 10:01:07;;;;;;;2.00;1.40;;;18.10;99.90;;;;;;5002510;28;20049;-17
2023/10/20 10:03:40;;;;;;;1.42;1.25;;;18.10;99.90;;;;;;4983553;28;20531;-24
2023/10/20 10:06:16;;;;;;;1.70;1.40;;;18.20;99.90;;;;;;5012728;28;20789;-18
2023/10/20 10:08:46;;;;;;;1.77;1.30;;;18.20;99.90;;;;;;5000726;28;20485;-21
2023/10/20 10:11:28;;;;;;;1.40;1.20;;;18.20;99.90;;;;;;4981652;28;20580;-19
2023/10/20 10:14:04;;;;;;;1.27;1.10;;;18.20;99.90;;;;;;4990097;28;20689;-16
2023/10/20 10:16:30;;;;;;;1.40;1.20;;;18.20;99.90;;;;;;5006035;28;20032;-15
2023/10/20 10:19:09;;;;;;;1.43;1.30;;;18.20;99.90;;;;;;4995439;28;20038;-16
2023/10/20 10:21:42;;;;;;;2.08;1.20;;;18.30;99.90;;;;;;4998007;28;20158;-16
2023/10/20 10:24:17;;;;;;;1.15;1.00;;;18.30;99.90;;;;;;4999152;28;20034;-18
2023/10/20 10:27:01;;;;;;;1.60;1.08;;;18.30;99.90;;;;;;5015257;28;20460;-16
2023/10/20 10:29:49;;;;;;;1.85;1.30;;;18.30;99.90;;;;;;4996422;28;20098;-16
2023/10/20 10:32:19;;;;;;;3.40;1.70;;;18.30;99.90;;;;;;5012681;28;20041;-17
2023/10/20 10:34:45;;;;;;;2.55;1.63;;;18.30;99.90;;;;;;4982332;28;20464;-16
2023/10/20 10:37:12;;;;;;;3.33;1.95;;;18.40;99.90;;;;;;5006720;28;20034;-17
2023/10/20 10:39:38;;;;;;;2.78;1.80;;;18.30;99.90;;;;;;5007773;28;20235;-16
2023/10/20 10:42:05;;;;;;;2.70;1.87;;;18.30;99.90;;;;;;4969551;28;20057;-20
2023/10/20 10:44:40;;;;;;;2.60;1.67;;;18.30;99.90;;;;;;4978850;28;21064;-21
2023/10/20 10:47:17;;;;;;;2.13;1.40;;;18.40;99.90;;;;;;5006752;28;20402;-19
2023/10/20 10:49:49;;;;;;;1.52;1.20;;;18.40;99.90;;;;;;4991319;28;20084;-23
2023/10/20 10:52:16;;;;;;;1.20;1.00;;;18.40;99.90;;;;;;4992863;28;20040;-20
2023/10/20 10:54:43;;;;;;;1.70;0.95;;;18.40;99.90;;;;;;5008281;28;20022;-23
2023/10/20 10:57:09;;;;;;;1.00;0.90;;;18.40;99.90;;;;;;4980349;28;20038;-18
2023/10/20 10:59:35;;;;;;;2.83;1.17;;;18.40;99.90;;;;;;5011520;28;20246;-23
2023/10/20 11:02:03;;;;;;;1.10;0.95;;;18.40;99.90;;;;;;4990402;28;21117;-24
2023/10/20 11:04:29;;;;;;;1.52;0.90;;;18.40;99.90;;;;;;4985713;28;20680;-23
2023/10/20 11:06:54;;;;;;;1.20;0.90;;;18.40;99.90;;;;;;4995891;28;20025;-25
2023/10/20 11:09:24;;;;;;;1.20;0.90;;;18.40;99.90;;;;;;5004409;28;20028;-19
2023/10/20 11:11:51;;;;;;;1.48;0.85;;;18.40;99.90;;;;;;4984133;28;20383;-22
2023/10/20 11:14:18;;;;;;;1.05;0.80;;;18.40;99.90;;;;;;4996752;28;20103;-18
2023/10/20 11:16:45;;;;;;;0.83;0.80;;;18.30;99.90;;;;;;5022144;28;20618;-27
2023/10/20 11:19:14;;;;;;;0.77;0.70;;;18.30;99.90;;;;;;5000004;28;20025;-19
2023/10/20 11:21:53;;;;;;;1.10;0.75;;;18.30;99.90;;;;;;4991146;28;20188;-24
2023/10/20 11:24:34;;;;;;;1.33;0.77;;;18.20;99.90;;;;;;5019935;28;20033;-20
2023/10/20 11:27:01;;;;;;;0.60;0.50;;;18.20;99.90;;;;;;5007962;28;20053;-23
2023/10/20 11:29:32;;;;;;;0.60;0.60;;;18.10;99.90;;;;;;4968451;28;20124;-22
2023/10/20 11:32:05;;;;;;;0.70;0.70;;;18.10;99.90;;;;;;5012519;28;20005;-26
2023/10/20 11:34:40;;;;;;;0.82;0.60;;;18.10;99.90;;;;;;5004137;28;20435;-24
2023/10/20 11:37:07;;;;;;;0.55;0.55;;;18.10;99.90;;;;;;4973215;28;20111;-23
2023/10/20 11:39:36;;;;;;;0.65;0.50;;;18.00;99.90;;;;;;5022157;28;20067;-24
2023/10/20 11:42:03;;;;;;;0.60;0.60;;;18.00;99.90;;;;;;4993207;28;20355;-21
2023/10/20 11:44:29;;;;;;;0.60;0.60;;;18.00;99.90;;;;;;4979259;28;20423;-23
2023/10/20 11:46:56;;;;;;;0.50;0.50;;;17.90;99.90;;;;;;4993830;28;20670;-21
2023/10/20 11:49:24;;;;;;;0.60;0.60;;;17.90;99.90;;;;;;5006711;28;20075;-21
2023/10/20 11:51:50;;;;;;;0.68;0.50;;;17.90;99.90;;;;;;4989052;28;20316;-19
2023/10/20 11:54:16;;;;;;;0.90;0.50;;;17.90;99.90;;;;;;5006548;28;20535;-19
2023/10/20 11:56:43;;;;;;;0.55;0.52;;;17.90;99.90;;;;;;5018488;28;20391;-17
2023/10/20 11:59:09;;;;;;;0.60;0.52;;;17.90;99.90;;;;;;4983455;28;20038;-18
2023/10/20 12:01:35;;;;;;;0.73;0.60;;;17.90;99.90;;;;;;4992664;28;20702;-18
2023/10/20 12:04:11;;;;;;;0.57;0.50;;;17.80;99.90;;;;;;4982961;28;20653;-19
2023/10/20 12:06:37;;;;;;;0.70;0.50;;;17.80;99.90;;;;;;4992683;28;20744;-18
2023/10/20 12:09:08;;;;;;;0.65;0.60;;;17.80;99.90;;;;;;5014950;28;20052;-17
2023/10/20 12:11:36;;;;;;;0.60;0.60;;;17.80;99.90;;;;;;5009585;28;20025;-22
2023/10/20 12:14:03;;;;;;;0.70;0.70;;;17.80;99.90;;;;;;4950246;28;20057;-17
2023/10/20 12:16:29;;;;;;;0.97;0.80;;;17.80;99.90;;;;;;4995930;28;21613;-19
2023/10/20 12:18:55;;;;;;;0.73;0.70;;;17.70;99.90;;;;;;4967241;28;20208;-19
2023/10/20 12:21:20;;;;;;;1.27;1.17;;;17.70;99.90;;;;;;4994766;28;21494;-21
2023/10/20 12:23:46;;;;;;;1.07;0.70;;;17.70;99.90;;;;;;5012572;28;20045;-20
2023/10/20 12:26:12;;;;;;;1.58;0.93;;;17.60;99.90;;;;;;4993323;28;20033;-19
2023/10/20 12:28:37;;;;;;;2.50;1.37;;;17.60;99.90;;;;;;5004840;28;20026;-17
2023/10/20 12:31:03;;;;;;;1.45;1.02;;;17.60;99.90;;;;;;4986822;28;20033;-22
2023/10/20 12:33:29;;;;;;;1.73;1.00;;;17.60;99.90;;;;;;4993083;28;20029;-16
2023/10/20 12:35:55;;;;;;;1.77;0.90;;;17.50;99.90;;;;;;4985959;28;20395;-17
2023/10/20 12:38:22;;;;;;;1.73;1.00;;;17.50;99.90;;;;;;4995412;28;20048;-16
2023/10/20 12:40:51;;;;;;;2.90;1.40;;;17.50;99.90;;;;;;4992962;28;20037;-16
2023/10/20 12:43:17;;;;;;;3.55;1.55;;;17.40;99.90;;;;;;5000357;28;20037;-16
2023/10/20 12:45:43;;;;;;;3.10;1.70;;;17.40;99.90;;;;;;4968572;28;20049;-15
2023/10/20 12:48:09;;;;;;;4.43;1.88;;;17.40;99.90;;;;;;4989748;28;20026;-14
2023/10/20 12:50:36;;;;;;;4.45;1.80;;;17.40;99.90;;;;;;5002022;28;20725;-14
2023/10/20 12:53:07;;;;;;;7.05;3.40;;;17.40;99.90;;;;;;4984626;28;20040;-13
2023/10/20 12:55:33;;;;;;;6.40;2.97;;;17.30;99.90;;;;;;5000582;28;20113;-14
2023/10/20 12:57:59;;;;;;;6.93;3.17;;;17.30;99.90;;;;;;5008518;28;20030;-13
2023/10/20 13:00:25;;;;;;;4.70;2.17;;;17.30;99.90;;;;;;4978195;28;20103;-14
2023/10/20 13:02:52;;;;;;;4.97;2.75;;;17.20;99.90;;;;;;5001769;28;20053;-13
2023/10/20 13:05:19;;;;;;;5.87;3.30;;;17.20;99.90;;;;;;4989757;28;20053;-14
2023/10/20 13:07:45;;;;;;;5.22;2.63;;;17.20;99.90;;;;;;4985235;28;20079;-13
2023/10/20 13:10:11;;;;;;;5.45;3.00;;;17.30;99.90;;;;;;5016969;28;20757;-13
2023/10/20 13:12:37;;;;;;;4.97;2.93;;;17.20;99.90;;;;;;5013023;28;20159;-14
2023/10/20 13:15:04;;;;;;;4.45;2.60;;;17.10;99.90;;;;;;4971416;28;20064;-13
2023/10/20 13:17:33;;;;;;;3.53;2.50;;;17.10;99.90;;;;;;4994648;28;20258;-14
2023/10/20 13:20:00;;;;;;;4.75;2.35;;;17.10;99.90;;;;;;4990965;28;20051;-13
2023/10/20 13:22:26;;;;;;;2.70;1.90;;;17.10;99.90;;;;;;4983359;28;20248;-13
2023/10/20 13:24:52;;;;;;;2.97;2.03;;;17.10;99.90;;;;;;5004323;28;20077;-13
2023/10/20 13:27:21;;;;;;;2.80;1.80;;;17.10;99.90;;;;;;5000685;28;20037;-13